• Join FlightAware (Why Join?)
  • Login
  • US Flag 
08:06AM EDT


 

Airport Tracker/Info


-or-


 

Live Flight TrackerFlight Track Log ✈ EGF3949 ✈ 27-Apr-2013 ✈ KORD - KAZO

Flight Track Log - Related Links

Times and Time Zones

All times are in EDT time to prevent confusion due to time zone crossing. See the EGF3949 flight status page for this flight to view local times or setup timezone preferences in your user account.

Time Position Orientation Groundspeed Altitude Reporting Facility
EDT Latitude Longitude Course Direction KTS MPH feet Rate Location/Type
10:17AM 41.9500 -87.9000 78° East 159 183 1,900  Level Chicago TRACON
10:18AM 41.9167 -87.8667 143° Southeast 238 274 4,500 1,260 Climbing Chicago TRACON
10:19AM 42.0342 -87.5405 83° East  Level FlightAware Approximate
10:19AM 41.9306 -87.7442 81° East 247 284 5,000  Level Chicago Center
10:20AM 42.0456 -87.4154 83° East  Level FlightAware Approximate
10:20AM 41.9522 -87.6514 73° East 256 295 5,000  Level Chicago Center
10:21AM 42.0616 -87.2914 78° East  Level FlightAware Approximate
10:21AM 41.9789 -87.5564 69° East 268 308 7,200  Level Chicago Center
10:22AM 42.0806 -87.1679 78° East  Level FlightAware Approximate
10:22AM 42.0122 -87.4400 69° East 280 322 10,700  Level Chicago Center
10:23AM 42.0408 -87.3261 71° East 320 368 12,700 1,920 Climbing Chicago Center
10:24AM 42.0756 -87.2044 69° East 347 399 14,700 1,680 Climbing Chicago Center
10:25AM 42.1103 -87.0753 70° East 366 421 16,200 1,080 Climbing Chicago Center
10:26AM 42.1250 -86.9325 82° East 383 441 17,000 300 Climbing Chicago Center
10:27AM 42.1378 -86.7817 83° East 401 461 16,900 -120 Descending Chicago Center
10:28AM 42.1486 -86.6267 85° East 414 476 16,800 -1,200 Descending Chicago Center
10:29AM 42.1644 -86.4489 83° East 402 463 14,500 -2,100 Descending Chicago Center
10:30AM 42.1767 -86.3036 83° East 393 452 12,600 -1,620 Descending Chicago Center
10:31AM 42.1875 -86.1672 84° East 373 429 11,200 -840 Descending Chicago Center
10:32AM 42.1989 -86.0306 84° East 368 423 10,900 -600 Descending Chicago Center
10:33AM 42.2075 -85.9247 84° East 323 372 10,000 -1,860 Descending Chicago Center
10:34AM 42.2158 -85.8139 84° East 279 321 7,200 -2,640 Descending Chicago Center
10:35AM 42.2436 -85.7214 68° East 272 313 4,600 -1,980 Descending Chicago Center
10:37AM 42.2831 -85.6356 58° Northeast 253 291 3,200 -1,080 Descending Chicago Center
10:38AM 42.2919 -85.5800 78° East 169 194 2,400 -720 Descending Chicago Center
10:39AM 42.2706 -85.5547 139° Southeast 140 161 1,800 -600 Descending Chicago Center